If you wish to contribute or participate in the discussions about articles you are invited to join SKYbrary as a registered user

 Actions

Vitoria/Foronda Airport

From SKYbrary Wiki

LEVT
Airport
ICAO: LEVT – IATA: VIT
Summary
Name Vitoria/Foronda Airport
Region Europe
Territory Spain ES.gif
Location , Pais Vasco
Serving Vitoria
Elevation 512.674 m
1,682 ft
1,682 ft512.674 m
Type medium airport
Coordinates 42° 52' 58.21" N, 2° 43' 28.09" W
Runways
Designator Length Width Surface ROPS
4/22 3500 m11,482.94 ft
45 m147.638 ft
CON yes/yes


METAR
Observation LEVT 220630Z VRB02KT 0400 R04/0700U R22/1900D FG VV001 06/06 Q1019
Station Vitoria
Date/Time 22 October 2019 06:30:00
Wind direction °
Wind speed 02 kts
Lowest cloud amount n/a
Temperature 4°C
Dew point 7°C
Humidity 123%
QNH 1019 hPa
Weather condition n/a